createdAt,value
2022-08-01T00:00:48.969Z,100209.09
2022-08-01T00:03:56.590Z,100202.38
2022-08-01T00:07:04.108Z,100206.22
2022-08-01T00:10:18.489Z,100202.13
2022-08-01T00:13:25.889Z,100205.00
2022-08-01T00:16:33.658Z,100203.53
2022-08-01T00:19:41.388Z,100197.41
2022-08-01T00:22:48.428Z,100198.62
2022-08-01T00:25:57.959Z,100208.38
2022-08-01T00:29:06.621Z,100199.81
2022-08-01T00:32:37.018Z,100202.47
2022-08-01T00:35:44.769Z,100199.81
2022-08-01T00:38:53.349Z,100195.09
2022-08-01T00:42:01.917Z,100200.59
2022-08-01T00:45:09.332Z,100197.88
2022-08-01T00:48:15.791Z,100194.34
2022-08-01T00:51:22.807Z,100195.56
2022-08-01T00:54:30.194Z,100196.19
2022-08-01T00:58:01.818Z,100197.00
2022-08-01T01:01:05.008Z,100206.37
2022-08-01T01:04:24.971Z,100208.00
2022-08-01T01:07:36.682Z,100198.75
2022-08-01T01:11:09.956Z,100202.44
2022-08-01T01:14:24.024Z,100199.16
2022-08-01T01:18:04.148Z,100204.84
2022-08-01T01:21:22.529Z,100202.59
2022-08-01T01:24:49.239Z,100197.09
2022-08-01T01:28:25.166Z,100193.81
2022-08-01T01:31:47.187Z,100196.47
2022-08-01T01:34:54.867Z,100186.25
2022-08-01T01:38:11.758Z,100186.06
2022-08-01T01:41:19.552Z,100190.53
2022-08-01T01:44:26.290Z,100184.62
2022-08-01T01:47:33.528Z,100182.56
2022-08-01T01:50:41.830Z,100187.22
2022-08-01T01:53:49.211Z,100180.66
2022-08-01T01:56:55.709Z,100181.44
2022-08-01T02:00:02.272Z,100176.13
2022-08-01T02:03:11.268Z,100179.22
2022-08-01T02:06:18.553Z,100175.75
2022-08-01T02:09:45.330Z,100175.31
2022-08-01T02:12:51.636Z,100177.78
2022-08-01T02:16:00.265Z,100176.75
2022-08-01T02:19:06.335Z,100173.69
2022-08-01T02:22:14.307Z,100172.87
2022-08-01T02:25:21.086Z,100174.25
2022-08-01T02:28:40.359Z,100182.63
2022-08-01T02:31:48.788Z,100183.66
2022-08-01T02:34:55.801Z,100178.53
2022-08-01T02:38:04.011Z,100170.78
2022-08-01T02:41:17.509Z,100175.09
2022-08-01T02:44:30.930Z,100175.28
2022-08-01T02:47:38.418Z,100166.69
2022-08-01T02:50:47.758Z,100169.16
2022-08-01T02:53:55.841Z,100164.25
2022-08-01T02:57:02.748Z,100171.19
2022-08-01T03:00:11.095Z,100164.25
2022-08-01T03:03:19.394Z,100161.41
2022-08-01T03:06:28.669Z,100158.56
2022-08-01T03:09:40.016Z,100160.78
2022-08-01T03:12:47.027Z,100163.81
2022-08-01T03:15:55.597Z,100170.13
2022-08-01T03:19:03.063Z,100160.16
2022-08-01T03:22:10.982Z,100170.41
2022-08-01T03:25:18.196Z,100168.22
2022-08-01T03:28:24.571Z,100165.25
2022-08-01T03:31:37.661Z,100169.00
2022-08-01T03:34:44.269Z,100163.53
2022-08-01T03:38:15.703Z,100167.66
2022-08-01T03:41:23.324Z,100172.00
2022-08-01T03:44:30.777Z,100168.19
2022-08-01T03:47:43.455Z,100173.53
2022-08-01T03:50:53.067Z,100165.19
2022-08-01T03:54:00.729Z,100167.47
2022-08-01T03:57:07.477Z,100179.78
2022-08-01T04:00:15.229Z,100185.94
2022-08-01T04:03:22.179Z,100164.91
2022-08-01T04:06:28.317Z,100173.09
2022-08-01T04:09:34.968Z,100177.38
2022-08-01T04:12:41.094Z,100177.41
2022-08-01T04:15:47.143Z,100172.94
2022-08-01T04:18:53.086Z,100178.44
2022-08-01T04:21:59.704Z,100173.16
2022-08-01T04:25:09.924Z,100175.00
2022-08-01T04:28:21.303Z,100173.56
2022-08-01T04:31:27.839Z,100172.69
2022-08-01T04:34:34.366Z,100168.16
2022-08-01T04:37:41.864Z,100173.88
2022-08-01T04:40:49.149Z,100166.44
2022-08-01T04:43:56.641Z,100173.09
2022-08-01T04:47:05.711Z,100174.31
2022-08-01T04:50:12.989Z,100180.09
2022-08-01T04:53:27.069Z,100185.28
2022-08-01T04:56:36.791Z,100191.03
2022-08-01T04:59:49.070Z,100194.41
2022-08-01T05:02:56.989Z,100194.13
2022-08-01T05:06:06.450Z,100198.31
2022-08-01T05:09:13.798Z,100198.75
2022-08-01T05:12:21.910Z,100205.38
2022-08-01T05:15:32.473Z,100203.84
2022-08-01T05:18:42.970Z,100207.81
2022-08-01T05:22:00.182Z,100203.22
2022-08-01T05:25:09.821Z,100204.53
2022-08-01T05:28:24.010Z,100208.34
2022-08-01T05:31:34.248Z,100211.09
2022-08-01T05:34:42.032Z,100200.69
2022-08-01T05:37:52.723Z,100202.00
2022-08-01T05:41:00.753Z,100192.47
2022-08-01T05:44:06.963Z,100198.22
2022-08-01T05:47:12.488Z,100192.53
2022-08-01T05:50:20.310Z,100203.59
2022-08-01T05:53:30.729Z,100205.09
2022-08-01T05:56:39.033Z,100202.34
2022-08-01T05:59:48.053Z,100202.69
2022-08-01T06:02:57.652Z,100205.59
2022-08-01T06:06:05.335Z,100202.34
2022-08-01T06:09:13.499Z,100208.50
2022-08-01T06:12:21.477Z,100223.97
2022-08-01T06:15:35.873Z,100224.94
2022-08-01T06:18:47.373Z,100221.75
2022-08-01T06:21:56.278Z,100223.13
2022-08-01T06:25:05.873Z,100217.66
2022-08-01T06:28:13.263Z,100221.13
2022-08-01T06:31:39.315Z,100224.53
2022-08-01T06:34:48.752Z,100235.00
2022-08-01T06:37:56.675Z,100223.19
2022-08-01T06:41:05.059Z,100220.91
2022-08-01T06:44:13.109Z,100222.06
2022-08-01T06:47:20.311Z,100225.53
2022-08-01T06:50:30.996Z,100221.72
2022-08-01T06:53:40.333Z,100219.34
2022-08-01T06:56:48.672Z,100231.13
2022-08-01T06:59:56.654Z,100238.44
2022-08-01T07:03:06.031Z,100232.59
2022-08-01T07:06:15.659Z,100226.72
2022-08-01T07:09:23.829Z,100230.50
2022-08-01T07:12:30.068Z,100232.84
2022-08-01T07:15:41.453Z,100223.91
2022-08-01T07:18:48.757Z,100223.84
2022-08-01T07:21:54.947Z,100239.94
2022-08-01T07:25:01.404Z,100244.97
2022-08-01T07:28:08.013Z,100235.28
2022-08-01T07:31:16.531Z,100240.75
2022-08-01T07:34:23.959Z,100237.22
2022-08-01T07:37:48.257Z,100234.94
2022-08-01T07:41:00.752Z,100220.75
2022-08-01T07:44:08.292Z,100229.12
2022-08-01T07:47:15.525Z,100227.94
2022-08-01T07:50:27.929Z,100236.50
2022-08-01T07:53:37.637Z,100232.72
2022-08-01T07:56:45.034Z,100246.06
2022-08-01T08:00:11.614Z,100235.84
2022-08-01T08:03:17.254Z,100244.69
2022-08-01T08:06:24.011Z,100243.09
2022-08-01T08:09:45.651Z,100247.13
2022-08-01T08:13:03.981Z,100246.81
2022-08-01T08:16:12.569Z,100252.16
2022-08-01T08:19:19.966Z,100251.91
2022-08-01T08:22:47.038Z,100246.53
2022-08-01T08:25:53.762Z,100240.87
2022-08-01T08:28:59.974Z,100244.00
2022-08-01T08:32:11.984Z,100241.09
2022-08-01T08:35:47.941Z,100246.34
2022-08-01T08:39:02.322Z,100245.78
2022-08-01T08:42:15.539Z,100244.13
2022-08-01T08:45:45.056Z,100246.59
2022-08-01T08:48:51.987Z,100243.25
2022-08-01T08:52:06.623Z,100244.00
2022-08-01T08:55:19.800Z,100250.34
2022-08-01T08:58:40.619Z,100247.63
2022-08-01T09:01:47.188Z,100243.00
2022-08-01T09:04:53.150Z,100255.22
2022-08-01T09:08:01.770Z,100253.31
2022-08-01T09:11:10.051Z,100260.63
2022-08-01T09:14:28.466Z,100259.69
2022-08-01T09:17:43.791Z,100252.59
2022-08-01T09:20:51.180Z,100257.09
2022-08-01T09:23:59.050Z,100256.53
2022-08-01T09:27:29.729Z,100249.25
2022-08-01T09:31:02.852Z,100256.78
2022-08-01T09:34:12.492Z,100266.19
2022-08-01T09:37:24.119Z,100263.44
2022-08-01T09:40:52.294Z,100259.41
2022-08-01T09:44:00.825Z,100253.81
2022-08-01T09:47:08.123Z,100256.75
2022-08-01T09:50:22.304Z,100254.63
2022-08-01T09:53:30.799Z,100250.97
2022-08-01T09:56:44.465Z,100252.62
2022-08-01T10:00:01.601Z,100249.47
2022-08-01T10:03:39.825Z,100251.31
2022-08-01T10:12:54.299Z,100239.25
2022-08-01T10:16:02.643Z,100239.25
2022-08-01T10:19:11.378Z,100239.31
2022-08-01T10:22:28.563Z,100238.00
2022-08-01T10:25:44.110Z,100238.44
2022-08-01T10:28:58.791Z,100241.16
2022-08-01T10:32:13.435Z,100238.91
2022-08-01T10:35:46.536Z,100247.59
2022-08-01T10:38:50.398Z,100235.94
2022-08-01T10:41:58.529Z,100231.06
2022-08-01T10:45:06.753Z,100236.69
2022-08-01T10:48:36.556Z,100231.25
2022-08-01T10:51:51.543Z,100226.94
2022-08-01T10:55:06.871Z,100227.56
2022-08-01T10:58:16.492Z,100230.66
2022-08-01T11:01:33.997Z,100221.88
2022-08-01T11:04:55.292Z,100223.13
2022-08-01T11:08:14.090Z,100215.06
2022-08-01T11:11:22.574Z,100223.00
2022-08-01T11:15:04.231Z,100209.41
2022-08-01T11:18:43.374Z,100216.00
2022-08-01T11:22:06.951Z,100207.81
2022-08-01T11:25:20.536Z,100203.00
2022-08-01T11:29:20.693Z,100204.28
2022-08-01T11:32:42.437Z,100199.00
2022-08-01T11:36:31.971Z,100199.47
2022-08-01T11:40:20.013Z,100197.16
2022-08-01T11:43:32.954Z,100193.63
2022-08-01T11:47:15.017Z,100197.34
2022-08-01T11:50:36.894Z,100184.66
2022-08-01T11:53:53.651Z,100193.88
2022-08-01T11:57:02.966Z,100189.84
2022-08-01T12:00:18.580Z,100193.09
2022-08-01T12:03:40.171Z,100188.66
2022-08-01T12:06:57.416Z,100186.06
2022-08-01T12:10:18.411Z,100186.06
2022-08-01T12:13:25.791Z,100189.91
2022-08-01T12:16:33.261Z,100178.19
2022-08-01T12:19:40.895Z,100180.44
2022-08-01T12:22:47.600Z,100180.66
2022-08-01T12:25:54.796Z,100181.06
2022-08-01T12:29:01.048Z,100170.50
2022-08-01T12:32:07.216Z,100184.16
2022-08-01T12:35:35.053Z,100178.31
2022-08-01T12:38:43.036Z,100180.22
2022-08-01T12:41:50.035Z,100182.69
2022-08-01T12:44:58.040Z,100179.03
2022-08-01T12:48:20.771Z,100182.94
2022-08-01T12:51:28.089Z,100186.31
2022-08-01T12:55:09.773Z,100188.44
2022-08-01T12:58:19.551Z,100186.91
2022-08-01T13:01:28.661Z,100185.91
2022-08-01T13:04:55.932Z,100176.03
2022-08-01T13:08:29.980Z,100173.72
2022-08-01T13:11:37.016Z,100170.81
2022-08-01T13:14:45.693Z,100162.37
2022-08-01T13:18:02.769Z,100157.75
2022-08-01T13:21:34.436Z,100160.50
2022-08-01T13:25:23.041Z,100155.53
2022-08-01T13:28:33.171Z,100160.25
2022-08-01T13:31:41.111Z,100156.97
2022-08-01T13:34:47.492Z,100157.84
2022-08-01T13:37:54.403Z,100145.84
2022-08-01T13:41:01.191Z,100146.13
2022-08-01T13:44:07.207Z,100147.81
2022-08-01T13:47:16.963Z,100146.97
2022-08-01T13:50:27.571Z,100138.94
2022-08-01T13:53:34.938Z,100143.66
2022-08-01T13:56:47.693Z,100134.34
2022-08-01T13:59:58.812Z,100150.69
2022-08-01T14:03:08.424Z,100145.00
2022-08-01T14:06:15.933Z,100147.03
2022-08-01T14:09:24.920Z,100145.53
2022-08-01T14:12:37.860Z,100143.72
2022-08-01T14:15:43.784Z,100146.41
2022-08-01T14:18:50.258Z,100131.63
2022-08-01T14:21:56.228Z,100143.22
2022-08-01T14:25:03.623Z,100138.53
2022-08-01T14:28:16.372Z,100139.97
2022-08-01T14:31:34.075Z,100148.87
2022-08-01T14:34:47.752Z,100145.63
2022-08-01T14:37:55.077Z,100147.31
2022-08-01T14:41:05.760Z,100146.94
2022-08-01T14:44:17.441Z,100145.69
2022-08-01T14:47:24.350Z,100135.47
2022-08-01T14:50:41.573Z,100141.87
2022-08-01T14:53:50.792Z,100143.94
2022-08-01T14:57:05.364Z,100138.31
2022-08-01T15:00:14.973Z,100143.78
2022-08-01T15:03:20.905Z,100138.78
2022-08-01T15:06:27.954Z,100127.31
2022-08-01T15:09:34.066Z,100135.06
2022-08-01T15:12:49.984Z,100131.13
2022-08-01T15:16:01.234Z,100127.56
2022-08-01T15:19:08.086Z,100125.31
2022-08-01T15:22:16.154Z,100138.50
2022-08-01T15:25:24.511Z,100135.87
2022-08-01T15:28:39.795Z,100139.75
2022-08-01T15:31:46.483Z,100141.31
2022-08-01T15:34:52.932Z,100132.75
2022-08-01T15:37:59.933Z,100134.88
2022-08-01T15:41:06.785Z,100133.50
2022-08-01T15:44:12.457Z,100137.75
2022-08-01T15:47:19.812Z,100138.06
2022-08-01T15:50:27.655Z,100138.41
2022-08-01T15:53:33.698Z,100140.22
2022-08-01T15:56:41.595Z,100131.53
2022-08-01T15:59:48.157Z,100132.44
2022-08-01T16:02:57.508Z,100137.75
2022-08-01T16:06:04.567Z,100138.63
2022-08-01T16:09:18.381Z,100138.56
2022-08-01T16:12:25.436Z,100148.75
2022-08-01T16:15:37.031Z,100140.31
2022-08-01T16:18:43.824Z,100145.53
2022-08-01T16:21:51.356Z,100151.69
2022-08-01T16:25:05.863Z,100150.81
2022-08-01T16:28:15.753Z,100149.13
2022-08-01T16:31:43.727Z,100144.19
2022-08-01T16:34:51.064Z,100151.44
2022-08-01T16:37:59.434Z,100140.69
2022-08-01T16:41:19.296Z,100139.97
2022-08-01T16:44:34.356Z,100143.94
2022-08-01T16:47:46.960Z,100144.78
2022-08-01T16:50:53.981Z,100149.34
2022-08-01T16:54:01.896Z,100149.19
2022-08-01T16:57:09.241Z,100151.78
2022-08-01T17:00:25.953Z,100157.72
2022-08-01T17:03:51.403Z,100157.22
2022-08-01T17:07:01.653Z,100162.63
2022-08-01T17:10:08.100Z,100161.16
2022-08-01T17:13:35.511Z,100155.53
2022-08-01T17:16:43.572Z,100168.06
2022-08-01T17:19:52.113Z,100158.84
2022-08-01T17:22:59.434Z,100172.37
2022-08-01T17:26:08.373Z,100169.44
2022-08-01T17:29:19.642Z,100172.81
2022-08-01T17:32:27.871Z,100171.03
2022-08-01T17:35:37.912Z,100171.66
2022-08-01T17:38:45.015Z,100172.87
2022-08-01T17:41:52.475Z,100166.66
2022-08-01T17:45:00.990Z,100169.13
2022-08-01T17:48:19.675Z,100168.31
2022-08-01T17:51:28.629Z,100164.03
2022-08-01T17:54:36.054Z,100166.78
2022-08-01T17:57:43.051Z,100162.22
2022-08-01T18:00:49.734Z,100157.41
2022-08-01T18:03:57.904Z,100159.34
2022-08-01T18:07:06.033Z,100163.97
2022-08-01T18:10:16.893Z,100164.31
2022-08-01T18:13:25.093Z,100162.19
2022-08-01T18:16:35.915Z,100169.81
2022-08-01T18:19:47.432Z,100166.34
2022-08-01T18:22:55.099Z,100180.97
2022-08-01T18:26:04.394Z,100172.87
2022-08-01T18:29:13.889Z,100175.87
2022-08-01T18:32:33.789Z,100180.47
2022-08-01T18:35:52.526Z,100176.97
2022-08-01T18:39:10.456Z,100175.34
2022-08-01T18:42:21.473Z,100179.87
2022-08-01T18:45:30.872Z,100186.63
2022-08-01T18:48:40.673Z,100189.31
2022-08-01T18:51:51.132Z,100192.22
2022-08-01T18:55:06.596Z,100191.31
2022-08-01T18:58:16.152Z,100206.37
2022-08-01T19:01:24.964Z,100201.41
2022-08-01T19:04:35.333Z,100204.59
2022-08-01T19:08:05.878Z,100216.34
2022-08-01T19:11:17.412Z,100214.81
2022-08-01T19:14:27.930Z,100213.87
2022-08-01T19:17:35.913Z,100219.69
2022-08-01T19:20:45.210Z,100231.91
2022-08-01T19:24:12.191Z,100238.44
2022-08-01T19:27:27.293Z,100237.72
2022-08-01T19:30:42.448Z,100244.50
2022-08-01T19:33:51.251Z,100247.59
2022-08-01T19:37:00.553Z,100246.34
2022-08-01T19:40:10.509Z,100238.41
2022-08-01T19:43:20.131Z,100245.47
2022-08-01T19:46:28.049Z,100252.75
2022-08-01T19:49:36.645Z,100261.22
2022-08-01T19:52:51.591Z,100253.97
2022-08-01T19:56:02.871Z,100253.81
2022-08-01T19:59:12.788Z,100247.47
2022-08-01T20:02:25.971Z,100250.81
2022-08-01T20:05:33.933Z,100253.53
2022-08-01T20:08:42.292Z,100253.66
2022-08-01T20:11:55.089Z,100255.91
2022-08-01T20:15:05.272Z,100255.50
2022-08-01T20:18:12.390Z,100252.97
2022-08-01T20:21:20.754Z,100252.78
2022-08-01T20:24:30.230Z,100255.84
2022-08-01T20:27:41.870Z,100257.59
2022-08-01T20:30:50.150Z,100255.75
2022-08-01T20:34:00.752Z,100249.97
2022-08-01T20:37:14.088Z,100262.78
2022-08-01T20:40:26.640Z,100267.22
2022-08-01T20:43:35.034Z,100265.94
2022-08-01T20:46:43.950Z,100271.19
2022-08-01T20:49:51.972Z,100268.63
2022-08-01T20:52:59.930Z,100263.75
2022-08-01T20:56:19.970Z,100259.66
2022-08-01T21:00:18.132Z,100268.88
2022-08-01T21:03:27.870Z,100265.72
2022-08-01T21:06:41.275Z,100269.22
2022-08-01T21:09:52.792Z,100265.62
2022-08-01T21:13:08.892Z,100264.22
2022-08-01T21:16:23.912Z,100267.34
2022-08-01T21:19:36.050Z,100268.03
2022-08-01T21:23:06.730Z,100268.59
2022-08-01T21:26:16.981Z,100273.47
2022-08-01T21:29:25.373Z,100281.50
2022-08-01T21:32:34.071Z,100280.91
2022-08-01T21:35:41.739Z,100286.12
2022-08-01T21:38:51.925Z,100285.31
2022-08-01T21:42:04.009Z,100291.56
2022-08-01T21:45:17.132Z,100298.06
2022-08-01T21:48:26.902Z,100292.78
2022-08-01T21:52:00.853Z,100293.91
2022-08-01T21:55:21.433Z,100298.09
2022-08-01T21:58:41.189Z,100299.09
2022-08-01T22:02:16.769Z,100297.41
2022-08-01T22:05:49.744Z,100292.75
2022-08-01T22:08:59.391Z,100301.19
2022-08-01T22:12:10.162Z,100306.75
2022-08-01T22:15:23.100Z,100309.97
2022-08-01T22:18:30.310Z,100306.47
2022-08-01T22:21:42.171Z,100307.87
2022-08-01T22:24:50.950Z,100313.44
2022-08-01T22:28:08.799Z,100308.91
2022-08-01T22:31:18.792Z,100308.09
2022-08-01T22:34:30.183Z,100309.16
2022-08-01T22:37:56.921Z,100310.94
2022-08-01T22:41:07.590Z,100313.28
2022-08-01T22:44:16.029Z,100309.88
2022-08-01T22:47:54.391Z,100314.00
2022-08-01T22:51:17.751Z,100317.06
2022-08-01T22:54:40.314Z,100310.25
2022-08-01T22:58:00.810Z,100308.84
2022-08-01T23:01:21.329Z,100308.59
2022-08-01T23:04:47.478Z,100306.59
2022-08-01T23:08:03.611Z,100298.19
2022-08-01T23:11:16.950Z,100300.50
2022-08-01T23:14:26.191Z,100305.25
2022-08-01T23:17:33.932Z,100303.59
2022-08-01T23:20:42.112Z,100305.25
2022-08-01T23:23:49.931Z,100309.16
2022-08-01T23:26:57.812Z,100310.66
2022-08-01T23:30:06.751Z,100304.56
2022-08-01T23:33:15.265Z,100303.75
2022-08-01T23:36:22.731Z,100314.19
2022-08-01T23:39:31.711Z,100315.22
2022-08-01T23:42:38.918Z,100319.38
2022-08-01T23:46:04.050Z,100310.34
2022-08-01T23:49:13.951Z,100303.81
2022-08-01T23:52:22.211Z,100309.38
2022-08-01T23:55:37.723Z,100311.44
2022-08-01T23:58:47.392Z,100307.44
